Time;durP1;ratioP1;P1;durP2;ratioP2;P2;SDS_P1;SDS_P2;PMS_P1;PMS_P2;Temp;Humidity;BMP_temperature;BMP_pressure;BME280_temperature;BME280_humidity;BME280_pressure;Samples;Min_cycle;Max_cycle;Signal;HPM_P1;HPM_P2
2021/01/04 00:00:05;;;;;;;6.87;3.50;;;4.90;99.90;;;;;;5096252;28;20200;-58
2021/01/04 00:03:03;;;;;;;8.50;4.15;;;4.90;99.90;;;;;;5096818;28;20180;-59
2021/01/04 00:05:31;;;;;;;6.28;3.70;;;4.80;99.90;;;;;;5096194;28;20240;-59
2021/01/04 00:08:10;;;;;;;8.52;3.60;;;4.70;1.00;;;;;;5096287;28;20635;-58
2021/01/04 00:11:19;;;;;;;6.95;3.50;;;4.70;99.90;;;;;;5094971;28;20264;-59
2021/01/04 00:14:11;;;;;;;8.18;2.63;;;4.80;1.00;;;;;;5091191;28;20199;-60
2021/01/04 00:16:43;;;;;;;8.25;2.95;;;4.80;1.00;;;;;;5094879;28;20715;-59
2021/01/04 00:19:30;;;;;;;7.93;4.05;;;4.80;1.00;;;;;;5093815;28;20180;-59
2021/01/04 00:22:34;;;;;;;6.55;3.40;;;4.80;1.00;;;;;;5076266;28;20204;-58
2021/01/04 00:25:27;;;;;;;5.15;3.30;;;4.80;1.00;;;;;;5075977;28;20610;-58
2021/01/04 00:28:00;;;;;;;5.00;3.25;;;4.80;1.00;;;;;;5076144;28;20310;-58
2021/01/04 00:30:51;;;;;;;6.05;3.40;;;4.80;99.90;;;;;;5076238;28;20241;-57
2021/01/04 00:33:26;;;;;;;4.18;2.40;;;4.70;1.00;;;;;;5075149;28;20177;-58
2021/01/04 00:35:59;;;;;;;6.13;2.97;;;4.60;1.00;;;;;;5078202;28;20210;-57
2021/01/04 00:38:45;;;;;;;5.20;3.17;;;4.70;44.30;;;;;;5076176;28;20181;-57
2021/01/04 00:41:24;;;;;;;8.02;2.97;;;4.80;58.50;;;;;;5092514;28;20197;-58
2021/01/04 00:43:54;;;;;;;3.88;2.50;;;4.70;1.00;;;;;;5093161;28;20176;-58
2021/01/04 00:46:32;;;;;;;7.05;3.10;;;4.70;1.00;;;;;;5096016;28;20513;-58
2021/01/04 00:49:19;;;;;;;4.22;2.20;;;4.70;99.90;;;;;;5094861;28;20247;-58
2021/01/04 00:51:57;;;;;;;6.75;3.17;;;4.70;1.00;;;;;;5096366;28;20257;-58
2021/01/04 00:54:34;;;;;;;8.75;3.35;;;4.80;99.90;;;;;;5096191;28;20506;-58
2021/01/04 00:57:20;;;;;;;5.63;3.00;;;4.90;99.50;;;;;;5096516;28;20195;-58
2021/01/04 01:00:21;;;;;;;5.53;2.53;;;4.80;1.00;;;;;;5095886;28;20609;-58
2021/01/04 01:03:08;;;;;;;3.10;2.22;;;4.80;1.00;;;;;;5088687;28;20214;-58
2021/01/04 01:05:41;;;;;;;7.03;2.20;;;4.90;1.00;;;;;;5095611;28;20182;-58
2021/01/04 01:08:28;;;;;;;8.05;3.28;;;4.90;1.00;;;;;;5095983;28;20581;-58
2021/01/04 01:11:05;;;;;;;5.60;3.08;;;4.90;1.00;;;;;;5095827;28;20569;-58
2021/01/04 01:13:52;;;;;;;4.93;3.10;;;4.90;1.00;;;;;;5095722;28;20186;-58
2021/01/04 01:16:56;;;;;;;5.35;2.97;;;4.90;99.90;;;;;;5095311;28;20264;-57
2021/01/04 01:19:28;;;;;;;4.32;3.00;;;4.90;99.90;;;;;;5095618;28;20176;-57
2021/01/04 01:21:56;;;;;;;5.53;2.85;;;4.90;99.90;;;;;;5095411;28;20711;-57
2021/01/04 01:24:23;;;;;;;3.25;1.90;;;4.90;99.90;;;;;;5094942;28;20188;-57
2021/01/04 01:27:26;;;;;;;5.47;2.67;;;5.00;99.90;;;;;;5095116;28;20512;-57
2021/01/04 01:30:20;;;;;;;5.18;2.50;;;5.00;99.90;;;;;;5095173;28;20484;-57
2021/01/04 01:33:05;;;;;;;5.07;1.92;;;5.00;1.00;;;;;;5087142;28;20781;-58
2021/01/04 01:36:08;;;;;;;2.85;1.80;;;5.10;1.30;;;;;;5094778;28;20287;-58
2021/01/04 01:38:34;;;;;;;4.20;2.63;;;4.90;1.00;;;;;;5095009;28;20244;-57
2021/01/04 01:41:26;;;;;;;3.70;2.70;;;4.90;1.00;;;;;;5094969;28;20167;-58
2021/01/04 01:44:04;;;;;;;4.50;2.95;;;5.00;17.70;;;;;;5094424;28;20617;-58
2021/01/04 01:46:53;;;;;;;5.15;2.90;;;5.00;99.90;;;;;;5094777;28;20289;-58
2021/01/04 01:49:28;;;;;;;4.93;2.53;;;5.00;99.90;;;;;;5094905;28;20187;-60
2021/01/04 01:52:23;;;;;;;3.30;2.10;;;5.00;99.90;;;;;;5094838;28;20185;-58
2021/01/04 01:55:21;;;;;;;3.53;1.90;;;4.90;99.90;;;;;;5094417;28;20609;-62
2021/01/04 01:58:05;;;;;;;4.32;3.17;;;5.00;99.90;;;;;;5082632;28;20218;-62
2021/01/04 02:00:39;;;;;;;4.40;1.92;;;4.90;99.90;;;;;;5094445;28;20659;-58
2021/01/04 02:03:45;;;;;;;1.38;1.27;;;4.90;99.90;;;;;;5094423;28;20214;-62
2021/01/04 02:06:11;;;;;;;3.05;1.67;;;5.00;99.90;;;;;;5094723;28;20183;-59
2021/01/04 02:08:44;;;;;;;3.60;1.87;;;5.00;99.90;;;;;;5094815;28;20259;-58
2021/01/04 02:11:36;;;;;;;2.88;1.85;;;4.90;99.90;;;;;;5094288;28;20187;-59
2021/01/04 02:14:16;;;;;;;3.80;2.13;;;5.10;99.90;;;;;;5093822;28;20191;-58
2021/01/04 02:17:07;;;;;;;2.58;1.90;;;5.00;81.00;;;;;;5093284;28;20650;-60
2021/01/04 02:19:47;;;;;;;5.85;2.47;;;4.90;99.90;;;;;;5094482;28;20184;-60
2021/01/04 02:22:39;;;;;;;2.17;1.60;;;4.80;99.90;;;;;;5094768;28;20263;-60
2021/01/04 02:25:05;;;;;;;2.65;1.83;;;4.80;85.70;;;;;;5094295;28;20267;-60
2021/01/04 02:27:38;;;;;;;2.60;1.70;;;4.90;99.90;;;;;;5094358;28;20289;-60
2021/01/04 02:30:05;;;;;;;2.35;1.85;;;5.10;99.90;;;;;;5094366;28;20458;-60
2021/01/04 02:32:30;;;;;;;3.22;2.10;;;4.90;99.90;;;;;;5094278;28;20249;-60
2021/01/04 02:34:57;;;;;;;2.33;1.60;;;5.00;21.70;;;;;;5093867;28;20616;-60
2021/01/04 02:37:25;;;;;;;3.47;1.65;;;4.90;99.90;;;;;;5094203;28;20176;-60
2021/01/04 02:39:54;;;;;;;2.58;1.70;;;4.90;99.90;;;;;;5094198;28;20192;-60
2021/01/04 02:42:26;;;;;;;1.90;1.77;;;4.80;1.00;;;;;;5093779;28;20215;-60
2021/01/04 02:44:53;;;;;;;2.10;1.50;;;4.70;99.90;;;;;;5093549;28;20180;-57
2021/01/04 02:47:18;;;;;;;1.70;1.60;;;4.80;33.40;;;;;;5093631;28;20173;-58
2021/01/04 02:50:05;;;;;;;2.50;1.30;;;4.70;99.90;;;;;;5093820;28;20576;-61
2021/01/04 02:52:48;;;;;;;3.15;1.98;;;4.70;70.40;;;;;;5093588;28;20669;-61
2021/01/04 02:55:36;;;;;;;4.13;1.67;;;4.70;99.90;;;;;;5093382;28;20269;-62
2021/01/04 02:58:23;;;;;;;1.60;1.05;;;4.60;99.90;;;;;;5092816;28;20572;-62
2021/01/04 03:01:01;;;;;;;4.65;1.42;;;4.60;99.90;;;;;;5094114;28;20541;-62
2021/01/04 03:03:28;;;;;;;1.92;1.50;;;4.50;99.90;;;;;;5093966;28;20573;-61
2021/01/04 03:05:57;;;;;;;5.35;1.90;;;4.60;99.90;;;;;;5094125;28;20617;-62
2021/01/04 03:08:23;;;;;;;3.25;1.55;;;4.60;99.90;;;;;;5094200;28;20206;-61
2021/01/04 03:10:48;;;;;;;5.83;1.80;;;4.50;1.00;;;;;;5093946;28;20183;-61
2021/01/04 03:13:39;;;;;;;1.77;1.07;;;4.60;13.90;;;;;;5093926;28;20191;-57
2021/01/04 03:16:16;;;;;;;2.85;1.17;;;4.50;99.90;;;;;;5093752;28;20495;-57
2021/01/04 03:18:53;;;;;;;2.20;1.20;;;4.50;1.00;;;;;;5094044;28;20178;-56
2021/01/04 03:21:23;;;;;;;3.88;1.25;;;4.40;99.90;;;;;;5094270;28;20172;-61
2021/01/04 03:23:51;;;;;;;2.05;1.20;;;4.40;1.00;;;;;;5093951;28;20200;-58
2021/01/04 03:26:21;;;;;;;2.13;1.20;;;4.30;1.00;;;;;;5094058;28;20175;-59
2021/01/04 03:28:47;;;;;;;1.95;0.88;;;4.30;1.00;;;;;;5096580;28;20252;-63
2021/01/04 03:31:13;;;;;;;2.00;1.37;;;4.30;99.90;;;;;;5098260;28;20528;-61
2021/01/04 03:33:39;;;;;;;5.20;1.70;;;4.30;1.00;;;;;;5098109;28;20179;-61
2021/01/04 03:36:05;;;;;;;4.80;1.50;;;4.30;99.90;;;;;;5097902;28;20526;-61
2021/01/04 03:38:32;;;;;;;5.53;1.50;;;4.30;99.90;;;;;;5097737;28;20179;-61
2021/01/04 03:40:58;;;;;;;1.00;0.80;;;4.30;99.90;;;;;;5097844;28;20719;-62
2021/01/04 03:43:24;;;;;;;1.45;1.00;;;4.30;99.90;;;;;;5097889;28;20215;-61
2021/01/04 03:45:50;;;;;;;3.30;1.50;;;4.30;99.90;;;;;;5097947;28;20220;-57
2021/01/04 03:48:16;;;;;;;1.87;1.27;;;4.20;99.90;;;;;;5097860;28;20164;-57
2021/01/04 03:50:41;;;;;;;2.10;1.13;;;4.30;1.00;;;;;;5097754;28;20182;-57
2021/01/04 03:53:07;;;;;;;3.13;1.10;;;4.30;1.00;;;;;;5097234;28;20184;-57
2021/01/04 03:55:33;;;;;;;3.83;1.10;;;4.20;99.90;;;;;;5097749;28;20238;-60
2021/01/04 03:57:59;;;;;;;1.00;0.80;;;4.30;99.90;;;;;;5097603;28;20486;-58
2021/01/04 04:00:24;;;;;;;4.07;1.30;;;4.20;99.90;;;;;;5097395;28;20204;-59
2021/01/04 04:02:50;;;;;;;0.90;0.70;;;4.30;1.00;;;;;;5097726;28;20176;-57
2021/01/04 04:05:17;;;;;;;1.60;1.03;;;4.40;99.90;;;;;;5098427;28;20191;-57
2021/01/04 04:07:44;;;;;;;1.50;0.90;;;4.40;1.00;;;;;;5098344;28;20176;-57
2021/01/04 04:10:11;;;;;;;1.80;1.42;;;4.50;99.90;;;;;;5096642;28;20172;-57
2021/01/04 04:12:37;;;;;;;2.90;0.98;;;4.40;99.90;;;;;;5097175;28;20267;-57
2021/01/04 04:15:05;;;;;;;1.53;0.90;;;4.30;99.90;;;;;;5096931;28;20668;-57
2021/01/04 04:17:31;;;;;;;2.38;1.20;;;4.40;99.90;;;;;;5097126;28;20425;-57
2021/01/04 04:19:56;;;;;;;0.77;0.70;;;4.40;99.90;;;;;;5097067;28;20632;-58
2021/01/04 04:22:22;;;;;;;1.90;0.60;;;4.40;99.90;;;;;;5097098;28;20164;-58
2021/01/04 04:24:48;;;;;;;1.70;1.20;;;4.30;99.90;;;;;;5096790;28;20187;-58
2021/01/04 04:27:14;;;;;;;1.07;0.80;;;4.40;99.90;;;;;;5096837;28;20429;-58
2021/01/04 04:29:42;;;;;;;1.73;0.80;;;4.40;1.00;;;;;;5096831;28;20172;-58
2021/01/04 04:32:08;;;;;;;1.90;1.15;;;4.30;1.00;;;;;;5097050;28;20214;-61
2021/01/04 04:34:35;;;;;;;3.05;1.33;;;4.40;1.00;;;;;;5097025;28;20688;-61
2021/01/04 04:37:01;;;;;;;1.45;0.93;;;4.40;99.90;;;;;;5096923;28;20207;-60
2021/01/04 04:39:27;;;;;;;3.33;1.00;;;4.30;1.00;;;;;;5096306;28;20617;-60
2021/01/04 04:41:54;;;;;;;1.40;1.07;;;4.40;1.00;;;;;;5096472;28;20172;-62
2021/01/04 04:44:33;;;;;;;1.52;1.00;;;4.50;1.00;;;;;;5096334;28;20650;-62
2021/01/04 04:47:40;;;;;;;2.08;1.10;;;4.60;1.00;;;;;;5096632;28;20207;-62
2021/01/04 04:50:06;;;;;;;6.55;1.08;;;4.50;1.00;;;;;;5088933;28;20196;-62
2021/01/04 04:52:57;;;;;;;3.43;1.00;;;4.40;1.00;;;;;;5095500;28;20182;-62
2021/01/04 04:55:34;;;;;;;0.52;0.52;;;4.40;1.00;;;;;;5096186;28;20210;-62
2021/01/04 04:58:06;;;;;;;1.20;0.50;;;4.40;1.00;;;;;;5096452;28;20172;-62
2021/01/04 05:00:40;;;;;;;2.70;0.73;;;4.40;16.60;;;;;;5096319;28;20216;-62
2021/01/04 05:03:11;;;;;;;0.75;0.70;;;4.40;37.80;;;;;;5095871;28;20487;-62
2021/01/04 05:05:57;;;;;;;1.27;0.90;;;4.40;99.90;;;;;;5095617;28;20180;-58
2021/01/04 05:09:04;;;;;;;0.70;0.60;;;4.30;99.90;;;;;;5095537;28;20676;-57
2021/01/04 05:11:34;;;;;;;3.10;1.27;;;4.40;1.00;;;;;;5095416;28;20215;-58
2021/01/04 05:14:05;;;;;;;0.90;0.50;;;4.50;1.00;;;;;;5095507;28;20275;-57
2021/01/04 05:17:13;;;;;;;3.08;1.00;;;4.40;99.90;;;;;;5095258;28;20211;-58
2021/01/04 05:20:06;;;;;;;1.08;0.73;;;4.40;99.90;;;;;;5095327;28;20571;-58
2021/01/04 05:22:38;;;;;;;1.77;0.85;;;4.50;25.80;;;;;;5095202;28;20178;-58
2021/01/04 05:25:43;;;;;;;4.72;1.23;;;4.60;1.00;;;;;;5094978;28;20172;-57
2021/01/04 05:28:33;;;;;;;0.80;0.60;;;4.50;26.10;;;;;;5075533;28;20195;-57
2021/01/04 05:31:33;;;;;;;1.20;0.80;;;4.40;1.00;;;;;;5094212;28;20187;-57
2021/01/04 05:34:30;;;;;;;1.98;1.20;;;4.40;1.00;;;;;;5090099;28;20199;-57
2021/01/04 05:37:08;;;;;;;1.92;1.02;;;4.50;1.00;;;;;;5093018;28;20215;-57
2021/01/04 05:39:54;;;;;;;5.65;1.40;;;4.40;99.90;;;;;;5094955;28;20235;-58
2021/01/04 05:42:29;;;;;;;3.05;0.52;;;4.40;99.90;;;;;;5095094;28;20172;-58
2021/01/04 05:45:17;;;;;;;2.70;0.80;;;4.40;99.90;;;;;;5094544;28;20228;-58
2021/01/04 05:48:05;;;;;;;1.45;1.00;;;4.30;99.90;;;;;;5094929;28;20179;-58
2021/01/04 05:50:41;;;;;;;2.28;0.80;;;4.40;99.90;;;;;;5095146;28;20176;-57
2021/01/04 05:53:07;;;;;;;2.13;1.25;;;4.40;99.90;;;;;;5093383;28;20236;-58
2021/01/04 05:55:32;;;;;;;1.50;0.77;;;4.30;99.90;;;;;;5094393;28;20598;-58
2021/01/04 05:58:10;;;;;;;0.83;0.60;;;4.30;1.00;;;;;;5094762;28;20172;-58
2021/01/04 06:00:37;;;;;;;2.30;0.77;;;4.30;1.00;;;;;;5094475;28;20546;-58
2021/01/04 06:03:14;;;;;;;1.05;0.65;;;4.30;99.90;;;;;;5094440;28;20191;-58
2021/01/04 06:05:41;;;;;;;0.77;0.63;;;4.20;1.00;;;;;;5094283;28;20184;-58
2021/01/04 06:08:20;;;;;;;2.58;0.80;;;4.20;1.00;;;;;;5094502;28;20199;-58
2021/01/04 06:10:46;;;;;;;2.75;1.05;;;4.10;1.00;;;;;;5094565;28;20180;-59
2021/01/04 06:13:14;;;;;;;1.43;0.70;;;4.10;1.00;;;;;;5094064;28;20180;-59
2021/01/04 06:15:40;;;;;;;2.28;0.88;;;4.10;1.00;;;;;;5094240;28;20209;-57
2021/01/04 06:18:19;;;;;;;0.77;0.70;;;4.20;1.00;;;;;;5094579;28;20168;-59
2021/01/04 06:20:44;;;;;;;2.97;0.98;;;4.20;1.00;;;;;;5094291;28;20418;-60
2021/01/04 06:23:32;;;;;;;1.70;0.90;;;4.10;1.00;;;;;;5094173;28;20176;-60
2021/01/04 06:29:47;;;;;;;2.30;1.10;;;4.20;1.00;;;;;;5094389;28;20244;-57
2021/01/04 06:32:34;;;;;;;2.67;1.10;;;4.10;99.90;;;;;;5094243;28;20176;-57
2021/01/04 06:35:22;;;;;;;1.40;0.93;;;4.30;99.90;;;;;;5093567;28;20191;-57
2021/01/04 06:37:48;;;;;;;2.67;0.85;;;4.30;99.90;;;;;;5090547;28;20289;-57
2021/01/04 06:40:32;;;;;;;1.63;0.80;;;4.20;99.90;;;;;;5093945;28;20171;-57
2021/01/04 06:43:10;;;;;;;4.13;1.33;;;4.10;99.90;;;;;;5094369;28;20233;-57
2021/01/04 06:45:44;;;;;;;2.03;1.02;;;3.90;99.90;;;;;;5094140;28;20299;-57
2021/01/04 06:48:44;;;;;;;1.33;0.82;;;3.90;99.90;;;;;;5093898;28;20244;-57
2021/01/04 06:51:36;;;;;;;1.00;0.73;;;4.00;99.90;;;;;;5093961;28;20191;-57
2021/01/04 06:54:30;;;;;;;0.70;0.70;;;4.10;99.90;;;;;;5093548;28;20179;-57
2021/01/04 06:57:17;;;;;;;2.72;1.10;;;3.90;99.90;;;;;;5093818;28;20207;-60
2021/01/04 06:59:43;;;;;;;2.90;1.00;;;4.10;99.90;;;;;;5095991;28;20694;-63
2021/01/04 07:02:36;;;;;;;1.00;0.90;;;4.20;99.90;;;;;;5094295;28;20184;-61
2021/01/04 07:05:24;;;;;;;1.88;1.25;;;4.20;99.90;;;;;;5094118;28;20180;-61
2021/01/04 07:08:17;;;;;;;2.00;1.35;;;4.20;99.90;;;;;;5095687;28;20605;-61
2021/01/04 07:11:01;;;;;;;2.00;1.25;;;4.20;99.90;;;;;;5094292;28;20627;-62
2021/01/04 07:13:51;;;;;;;1.58;0.90;;;4.30;99.90;;;;;;5094246;28;20176;-62
2021/01/04 07:16:17;;;;;;;1.50;0.90;;;4.30;99.90;;;;;;5093767;28;20207;-61
2021/01/04 07:18:54;;;;;;;1.43;0.97;;;4.20;99.90;;;;;;5095594;28;20176;-58
2021/01/04 07:21:26;;;;;;;3.78;1.02;;;4.20;99.90;;;;;;5094875;28;20183;-59
2021/01/04 07:24:14;;;;;;;5.28;1.80;;;4.30;99.90;;;;;;5094819;28;20264;-58
2021/01/04 07:27:02;;;;;;;2.65;1.73;;;4.20;99.90;;;;;;5094107;28;20182;-58
2021/01/04 07:29:56;;;;;;;5.05;1.75;;;3.90;1.00;;;;;;5094075;28;20176;-58
2021/01/04 07:32:49;;;;;;;1.58;1.48;;;3.60;1.00;;;;;;5094151;28;20172;-58
2021/01/04 07:35:38;;;;;;;1.92;1.10;;;3.60;1.00;;;;;;5093157;28;20211;-58
2021/01/04 07:38:29;;;;;;;1.60;1.50;;;3.60;1.00;;;;;;5093471;28;20164;-58
2021/01/04 07:41:10;;;;;;;3.00;1.25;;;3.70;1.00;;;;;;5093644;28;20176;-59
2021/01/04 07:44:10;;;;;;;2.25;1.25;;;3.80;1.00;;;;;;5093330;28;20187;-58
2021/01/04 07:47:04;;;;;;;2.90;1.25;;;3.50;1.00;;;;;;5093601;28;20183;-58
2021/01/04 07:50:10;;;;;;;2.70;1.67;;;3.60;1.00;;;;;;5093267;28;20187;-58
2021/01/04 07:52:54;;;;;;;0.80;0.80;;;3.40;1.00;;;;;;5093575;28;20267;-58
2021/01/04 07:55:32;;;;;;;1.23;0.82;;;3.40;1.00;;;;;;5092892;28;20541;-58
2021/01/04 07:58:24;;;;;;;1.40;1.30;;;3.30;1.00;;;;;;5093063;28;20179;-58
2021/01/04 08:01:25;;;;;;;4.10;1.45;;;3.30;1.00;;;;;;5093250;28;20202;-58
2021/01/04 08:04:32;;;;;;;1.15;1.05;;;3.20;1.00;;;;;;5054149;28;20173;-58
2021/01/04 08:07:19;;;;;;;3.20;1.48;;;3.10;1.00;;;;;;5093847;28;20492;-57
2021/01/04 08:10:03;;;;;;;1.45;1.35;;;3.10;1.00;;;;;;5093128;28;20716;-57
2021/01/04 08:13:09;;;;;;;5.20;1.55;;;3.00;1.00;;;;;;5092903;28;20198;-57
2021/01/04 08:15:46;;;;;;;2.05;1.23;;;3.10;1.00;;;;;;5094362;28;20211;-57
2021/01/04 08:18:16;;;;;;;2.78;0.90;;;3.10;1.00;;;;;;5096434;28;20179;-57
2021/01/04 08:21:08;;;;;;;1.40;1.30;;;3.00;1.00;;;;;;5096611;28;20176;-57
2021/01/04 08:24:05;;;;;;;2.72;1.77;;;2.90;1.00;;;;;;5096172;28;20494;-57
2021/01/04 08:26:58;;;;;;;1.85;1.17;;;3.00;1.00;;;;;;5096292;28;20598;-57
2021/01/04 08:29:47;;;;;;;1.80;1.70;;;3.00;1.00;;;;;;5096152;28;20183;-57
2021/01/04 08:32:39;;;;;;;1.20;1.10;;;3.00;1.00;;;;;;5095932;28;20207;-57
2021/01/04 08:35:12;;;;;;;1.75;1.63;;;3.00;1.00;;;;;;5094751;28;20752;-59
2021/01/04 08:37:42;;;;;;;1.92;1.70;;;2.90;1.00;;;;;;5095353;28;20255;-60
2021/01/04 08:40:22;;;;;;;1.20;1.10;;;2.90;1.00;;;;;;5097063;28;20190;-59
2021/01/04 08:43:01;;;;;;;1.30;0.95;;;2.90;1.00;;;;;;5097755;28;20182;-59
2021/01/04 08:45:34;;;;;;;1.70;0.93;;;2.90;1.00;;;;;;5098268;28;20172;-59
2021/01/04 08:48:12;;;;;;;2.05;1.08;;;2.80;1.00;;;;;;5096693;28;20308;-63
2021/01/04 08:50:39;;;;;;;1.70;1.25;;;2.80;1.00;;;;;;5097151;28;20176;-60
2021/01/04 08:53:15;;;;;;;1.40;1.08;;;2.80;1.00;;;;;;5097226;28;20183;-60
2021/01/04 08:55:41;;;;;;;0.70;0.70;;;2.70;1.00;;;;;;5097889;28;20250;-62
2021/01/04 08:58:32;;;;;;;0.98;0.98;;;2.70;1.00;;;;;;5096327;28;20176;-59
2021/01/04 09:01:17;;;;;;;1.40;1.30;;;2.60;1.00;;;;;;5096584;28;20517;-59
2021/01/04 09:03:46;;;;;;;1.08;0.98;;;2.80;1.00;;;;;;5098070;28;20632;-61
2021/01/04 09:06:31;;;;;;;1.77;1.67;;;2.80;1.00;;;;;;5097386;28;20171;-59
2021/01/04 09:09:11;;;;;;;1.67;1.30;;;2.80;1.00;;;;;;5096221;28;20270;-61
2021/01/04 09:11:40;;;;;;;2.80;1.70;;;2.90;1.00;;;;;;5096058;28;20310;-59
2021/01/04 09:14:24;;;;;;;2.10;1.90;;;3.10;1.00;;;;;;5095600;28;20208;-59
2021/01/04 09:16:50;;;;;;;1.30;1.20;;;3.10;1.00;;;;;;5095464;28;20207;-59
2021/01/04 09:19:35;;;;;;;2.50;2.08;;;3.00;1.00;;;;;;5094898;28;20191;-59
2021/01/04 09:22:13;;;;;;;2.25;1.10;;;3.30;1.00;;;;;;5094745;28;20186;-60
2021/01/04 09:24:41;;;;;;;2.15;1.90;;;3.10;1.00;;;;;;5094809;28;20187;-58
2021/01/04 09:27:29;;;;;;;2.67;1.50;;;3.00;1.00;;;;;;5095139;28;20874;-61
2021/01/04 09:30:03;;;;;;;1.75;1.65;;;2.90;1.00;;;;;;5094513;28;20187;-60
2021/01/04 09:32:39;;;;;;;2.20;1.42;;;3.00;1.00;;;;;;5095578;28;20236;-60
2021/01/04 09:35:08;;;;;;;3.85;1.60;;;2.80;1.00;;;;;;5091722;28;20190;-60
2021/01/04 09:37:37;;;;;;;2.17;1.73;;;2.90;1.00;;;;;;5095227;28;20234;-60
2021/01/04 09:40:09;;;;;;;1.88;1.70;;;2.80;1.00;;;;;;5095291;28;20259;-58
2021/01/04 09:42:36;;;;;;;3.00;1.98;;;2.80;1.00;;;;;;5093941;28;20176;-62
2021/01/04 09:45:17;;;;;;;3.95;1.90;;;3.00;11.50;;;;;;5095155;28;20504;-59
2021/01/04 09:47:47;;;;;;;4.18;1.63;;;2.90;17.60;;;;;;5093952;28;20465;-63
2021/01/04 09:50:27;;;;;;;2.97;2.05;;;3.00;18.20;;;;;;5094493;28;20229;-59
2021/01/04 09:53:01;;;;;;;3.97;1.90;;;3.10;11.40;;;;;;5094319;28;20168;-59
2021/01/04 09:55:32;;;;;;;2.10;1.65;;;3.10;16.10;;;;;;5094779;28;20192;-59
2021/01/04 09:58:00;;;;;;;3.05;1.50;;;3.20;12.40;;;;;;5094633;28;20635;-60
2021/01/04 10:00:29;;;;;;;3.13;2.35;;;2.80;1.00;;;;;;5093775;28;20256;-59
2021/01/04 10:03:03;;;;;;;2.00;1.80;;;3.00;2.70;;;;;;5091741;28;20187;-62
2021/01/04 10:05:39;;;;;;;5.40;1.75;;;3.00;2.30;;;;;;5092562;28;20192;-63
2021/01/04 10:08:09;;;;;;;2.20;2.00;;;3.10;1.00;;;;;;5093401;28;20271;-60
2021/01/04 10:10:39;;;;;;;1.33;1.23;;;3.20;1.00;;;;;;5091989;28;20758;-61
2021/01/04 10:13:11;;;;;;;3.17;2.10;;;3.10;1.00;;;;;;5094309;28;20554;-60
2021/01/04 10:15:37;;;;;;;1.70;1.45;;;3.10;1.00;;;;;;5092539;28;20671;-60
2021/01/04 10:18:35;;;;;;;4.72;2.05;;;3.10;1.00;;;;;;5093476;28;20191;-61
2021/01/04 10:21:05;;;;;;;2.80;2.38;;;3.00;1.00;;;;;;5093846;28;20188;-60
2021/01/04 10:23:38;;;;;;;3.55;2.08;;;3.00;1.00;;;;;;5094120;28;20176;-61
2021/01/04 10:26:09;;;;;;;1.98;1.38;;;3.10;1.00;;;;;;5094029;28;20194;-59
2021/01/04 10:28:37;;;;;;;1.42;1.33;;;3.10;1.00;;;;;;5093613;28;20188;-60
2021/01/04 10:31:17;;;;;;;2.00;1.52;;;2.90;10.00;;;;;;5094363;28;20469;-58
2021/01/04 10:33:43;;;;;;;3.85;2.30;;;3.00;24.70;;;;;;5094139;28;20195;-60
2021/01/04 10:36:09;;;;;;;2.43;1.73;;;3.00;23.50;;;;;;5094103;28;20270;-61
2021/01/04 10:38:41;;;;;;;1.50;1.40;;;2.80;20.30;;;;;;5093549;28;20491;-61
2021/01/04 10:41:16;;;;;;;1.60;1.50;;;2.90;25.90;;;;;;5094720;28;20426;-60
2021/01/04 10:43:42;;;;;;;2.70;2.17;;;3.20;32.40;;;;;;5093562;28;20266;-62
2021/01/04 10:46:46;;;;;;;2.92;1.42;;;3.10;19.70;;;;;;5093927;28;20195;-62
2021/01/04 10:49:34;;;;;;;1.38;1.17;;;3.00;1.00;;;;;;5094010;28;20256;-64
2021/01/04 10:52:01;;;;;;;1.20;1.02;;;3.10;1.00;;;;;;5093103;28;20602;-61
2021/01/04 10:54:37;;;;;;;1.80;1.40;;;3.10;1.00;;;;;;5093393;28;20199;-58
2021/01/04 10:57:12;;;;;;;1.10;1.00;;;3.00;1.00;;;;;;5093924;28;20206;-62
2021/01/04 10:59:44;;;;;;;1.30;1.10;;;3.10;1.00;;;;;;5093596;28;20219;-61
2021/01/04 11:02:09;;;;;;;4.10;1.80;;;3.20;1.00;;;;;;5093825;28;20187;-64
2021/01/04 11:04:36;;;;;;;2.10;1.60;;;3.20;1.00;;;;;;5093847;28;20175;-63
2021/01/04 11:07:13;;;;;;;3.03;1.60;;;3.30;1.00;;;;;;5094708;28;20237;-62
2021/01/04 11:09:41;;;;;;;2.55;1.90;;;3.50;1.00;;;;;;5080212;28;20527;-62
2021/01/04 11:12:20;;;;;;;3.40;2.00;;;3.60;1.00;;;;;;5093840;28;20176;-61
2021/01/04 11:15:04;;;;;;;3.40;1.83;;;3.50;1.00;;;;;;5093554;28;20256;-60
2021/01/04 11:17:34;;;;;;;3.88;1.90;;;3.60;1.00;;;;;;5094038;28;20241;-59
2021/01/04 11:20:11;;;;;;;3.08;1.40;;;3.60;1.00;;;;;;5094046;28;20706;-59
2021/01/04 11:22:36;;;;;;;2.60;1.65;;;3.50;1.00;;;;;;5094119;28;20541;-59
2021/01/04 11:25:04;;;;;;;9.37;1.40;;;3.50;1.00;;;;;;5093292;28;20176;-59
2021/01/04 11:27:30;;;;;;;1.80;1.17;;;3.40;1.00;;;;;;5093377;28;20191;-59
2021/01/04 11:29:55;;;;;;;1.35;1.25;;;3.40;1.00;;;;;;5093563;28;20505;-59
2021/01/04 11:32:22;;;;;;;4.23;2.20;;;3.20;1.00;;;;;;5093427;28;20190;-59
2021/01/04 11:34:51;;;;;;;2.83;2.10;;;3.20;1.00;;;;;;5093551;28;20176;-59
2021/01/04 11:37:18;;;;;;;3.42;1.67;;;3.40;3.40;;;;;;5094281;28;20295;-58
2021/01/04 11:39:44;;;;;;;1.70;1.60;;;3.40;4.60;;;;;;5093628;28;20172;-57
2021/01/04 11:42:10;;;;;;;3.23;1.70;;;3.60;11.20;;;;;;5093945;28;20218;-57
2021/01/04 11:44:37;;;;;;;5.35;1.70;;;3.50;1.00;;;;;;5094078;28;20458;-60
2021/01/04 11:47:04;;;;;;;1.42;1.33;;;3.30;1.00;;;;;;5093974;28;20223;-59
2021/01/04 11:49:30;;;;;;;4.32;1.63;;;3.40;17.20;;;;;;5092484;28;20279;-59
2021/01/04 11:51:56;;;;;;;3.05;1.60;;;3.40;22.40;;;;;;5096747;28;20187;-58
2021/01/04 11:54:22;;;;;;;2.13;1.20;;;3.50;25.00;;;;;;5096790;28;20180;-59
2021/01/04 11:56:48;;;;;;;1.52;1.38;;;3.30;16.20;;;;;;5097473;28;20563;-60
2021/01/04 11:59:14;;;;;;;1.70;1.20;;;3.30;27.90;;;;;;5097119;28;20225;-61
2021/01/04 12:01:40;;;;;;;4.03;1.07;;;3.20;30.10;;;;;;5096153;28;20271;-61
2021/01/04 12:04:07;;;;;;;1.90;0.90;;;3.10;43.50;;;;;;5095950;28;20433;-61
2021/01/04 12:06:33;;;;;;;2.05;1.13;;;3.10;52.40;;;;;;5096436;28;20299;-60
2021/01/04 12:08:58;;;;;;;1.63;1.30;;;3.20;60.80;;;;;;5095459;28;20223;-60
2021/01/04 12:11:29;;;;;;;1.40;1.30;;;3.20;54.20;;;;;;5096956;28;20482;-59
2021/01/04 12:13:55;;;;;;;0.68;0.68;;;3.30;50.20;;;;;;5096045;28;20175;-59
2021/01/04 12:16:20;;;;;;;2.07;1.07;;;3.20;32.70;;;;;;5095311;28;20595;-60
2021/01/04 12:18:46;;;;;;;1.90;1.20;;;3.20;48.30;;;;;;5097024;28;20489;-59
2021/01/04 12:21:13;;;;;;;1.10;1.00;;;3.30;48.00;;;;;;5097039;28;20636;-59
2021/01/04 12:23:38;;;;;;;3.28;0.90;;;3.30;26.60;;;;;;5096950;28;20172;-59
2021/01/04 12:26:04;;;;;;;1.80;1.23;;;3.30;7.10;;;;;;5096976;28;20180;-60
2021/01/04 12:28:30;;;;;;;1.57;1.20;;;3.40;12.90;;;;;;5096859;28;20172;-58
2021/01/04 12:30:55;;;;;;;1.47;1.17;;;3.30;9.00;;;;;;5096900;28;20203;-58
2021/01/04 12:33:21;;;;;;;1.63;1.00;;;3.30;16.60;;;;;;5096594;28;20198;-58
2021/01/04 12:35:46;;;;;;;0.83;0.83;;;3.30;17.40;;;;;;5096537;28;20230;-58
2021/01/04 12:38:12;;;;;;;1.27;1.10;;;3.20;17.20;;;;;;5096662;28;20172;-58
2021/01/04 12:40:37;;;;;;;0.70;0.50;;;3.20;15.40;;;;;;5096579;28;20263;-61
2021/01/04 12:43:04;;;;;;;1.17;0.73;;;3.10;14.60;;;;;;5095537;28;20183;-61
2021/01/04 12:45:42;;;;;;;1.27;1.00;;;3.30;22.80;;;;;;5095638;28;20184;-59
2021/01/04 12:48:08;;;;;;;2.50;1.10;;;3.20;22.20;;;;;;5096908;28;20194;-61
2021/01/04 12:50:33;;;;;;;1.43;1.00;;;3.30;25.40;;;;;;5096794;28;20176;-59
2021/01/04 12:53:00;;;;;;;2.90;1.47;;;3.10;25.30;;;;;;5096485;28;20176;-63
2021/01/04 12:55:25;;;;;;;1.30;1.10;;;3.20;32.20;;;;;;5096098;28;20253;-60
2021/01/04 12:57:51;;;;;;;4.27;1.90;;;3.30;50.60;;;;;;5095163;28;20184;-60
2021/01/04 13:00:24;;;;;;;2.10;1.30;;;3.30;51.60;;;;;;5096028;28;20664;-60
2021/01/04 13:02:51;;;;;;;1.40;1.30;;;3.50;53.20;;;;;;5094987;28;20224;-61
2021/01/04 13:05:18;;;;;;;3.70;1.33;;;3.40;22.60;;;;;;5096150;28;20621;-60
2021/01/04 13:07:43;;;;;;;1.13;0.95;;;3.40;29.10;;;;;;5096361;28;20219;-60
2021/01/04 13:10:10;;;;;;;3.10;0.57;;;3.50;26.80;;;;;;5096290;28;20208;-61
2021/01/04 13:12:36;;;;;;;2.08;1.33;;;3.40;23.70;;;;;;5096293;28;20182;-60
2021/01/04 13:15:04;;;;;;;2.60;1.88;;;3.40;26.50;;;;;;5078934;28;20570;-64
2021/01/04 13:17:29;;;;;;;0.80;0.80;;;3.50;19.50;;;;;;5087761;28;20302;-64
2021/01/04 13:19:55;;;;;;;3.73;1.77;;;3.40;17.90;;;;;;5094854;28;20215;-63
2021/01/04 13:22:23;;;;;;;2.53;1.23;;;3.50;21.80;;;;;;5095594;28;20180;-60
2021/01/04 13:24:49;;;;;;;1.95;1.10;;;3.60;15.50;;;;;;5095400;28;20514;-62
2021/01/04 13:27:14;;;;;;;1.90;1.57;;;3.40;2.40;;;;;;5095312;28;20191;-61
2021/01/04 13:29:40;;;;;;;2.27;1.47;;;3.50;2.50;;;;;;5095157;28;20191;-64
2021/01/04 13:32:09;;;;;;;3.13;1.50;;;3.70;8.60;;;;;;5094274;28;20186;-60
2021/01/04 13:34:36;;;;;;;3.45;1.80;;;3.80;1.00;;;;;;5094917;28;20619;-59
2021/01/04 13:37:03;;;;;;;1.15;1.05;;;3.50;1.00;;;;;;5095039;28;20259;-63
2021/01/04 13:39:29;;;;;;;1.65;1.15;;;3.40;1.00;;;;;;5095218;28;20245;-60
2021/01/04 13:41:56;;;;;;;2.03;1.40;;;3.50;1.00;;;;;;5094953;28;20214;-61
2021/01/04 13:44:23;;;;;;;3.88;1.13;;;3.40;1.00;;;;;;5094746;28;20273;-62
2021/01/04 13:46:49;;;;;;;2.00;1.55;;;3.40;4.20;;;;;;5095104;28;20172;-59
2021/01/04 13:49:16;;;;;;;1.77;1.00;;;3.40;1.30;;;;;;5095006;28;20341;-59
2021/01/04 13:51:48;;;;;;;1.90;1.70;;;3.30;6.60;;;;;;5095139;28;20262;-61